sensor_id;sensor_type;location;lat;lon;timestamp;pressure;altitude;pressure_sealevel;temperature;humidity
141;BME280;65;48.778;9.160;2023-09-12T00:02:05;98129.72;;;20.25;100.00
141;BME280;65;48.778;9.160;2023-09-12T00:04:51;98126.13;;;20.16;100.00
141;BME280;65;48.778;9.160;2023-09-12T00:07:39;98121.72;;;20.07;100.00
141;BME280;65;48.778;9.160;2023-09-12T00:10:24;98108.09;;;20.00;100.00
141;BME280;65;48.778;9.160;2023-09-12T00:13:11;98116.94;;;19.93;100.00
141;BME280;65;48.778;9.160;2023-09-12T00:15:57;98112.50;;;19.83;100.00
141;BME280;65;48.778;9.160;2023-09-12T00:18:43;98107.63;;;19.79;100.00
141;BME280;65;48.778;9.160;2023-09-12T00:21:29;98107.09;;;19.75;100.00
141;BME280;65;48.778;9.160;2023-09-12T00:24:14;98105.72;;;19.71;100.00
141;BME280;65;48.778;9.160;2023-09-12T00:27:00;98101.94;;;19.64;100.00
141;BME280;65;48.778;9.160;2023-09-12T00:29:46;98099.06;;;19.57;100.00
141;BME280;65;48.778;9.160;2023-09-12T00:32:32;98099.53;;;19.53;100.00
141;BME280;65;48.778;9.160;2023-09-12T00:35:17;98099.56;;;19.61;100.00
141;BME280;65;48.778;9.160;2023-09-12T00:38:03;98102.66;;;19.66;100.00
141;BME280;65;48.778;9.160;2023-09-12T00:40:49;98101.94;;;19.64;100.00
141;BME280;65;48.778;9.160;2023-09-12T00:43:35;98101.81;;;19.66;100.00
141;BME280;65;48.778;9.160;2023-09-12T00:46:22;98107.31;;;19.64;100.00
141;BME280;65;48.778;9.160;2023-09-12T00:49:09;98099.72;;;19.59;100.00
141;BME280;65;48.778;9.160;2023-09-12T00:51:56;98107.09;;;19.57;100.00
141;BME280;65;48.778;9.160;2023-09-12T00:54:42;98101.88;;;19.56;100.00
141;BME280;65;48.778;9.160;2023-09-12T00:57:28;98105.00;;;19.51;100.00
141;BME280;65;48.778;9.160;2023-09-12T01:00:15;98108.16;;;19.47;100.00
141;BME280;65;48.778;9.160;2023-09-12T01:03:01;98111.13;;;19.44;100.00
141;BME280;65;48.778;9.160;2023-09-12T01:05:48;98097.59;;;19.45;100.00
141;BME280;65;48.778;9.160;2023-09-12T01:08:35;98098.41;;;19.46;100.00
141;BME280;65;48.778;9.160;2023-09-12T01:11:23;98095.00;;;19.53;100.00
141;BME280;65;48.778;9.160;2023-09-12T01:14:09;98091.00;;;19.57;100.00
141;BME280;65;48.778;9.160;2023-09-12T01:16:56;98093.00;;;19.55;100.00
141;BME280;65;48.778;9.160;2023-09-12T01:19:42;98083.19;;;19.46;100.00
141;BME280;65;48.778;9.160;2023-09-12T01:26:08;98089.00;;;19.42;100.00
141;BME280;65;48.778;9.160;2023-09-12T01:29:21;98099.50;;;19.35;100.00
141;BME280;65;48.778;9.160;2023-09-12T01:32:08;98093.38;;;19.25;100.00
141;BME280;65;48.778;9.160;2023-09-12T01:34:55;98106.88;;;19.15;100.00
141;BME280;65;48.778;9.160;2023-09-12T01:37:40;98099.44;;;19.09;100.00
141;BME280;65;48.778;9.160;2023-09-12T01:40:36;98099.34;;;19.01;100.00
141;BME280;65;48.778;9.160;2023-09-12T01:43:25;98103.63;;;18.94;100.00
141;BME280;65;48.778;9.160;2023-09-12T01:46:14;98105.91;;;18.89;100.00
141;BME280;65;48.778;9.160;2023-09-12T01:49:07;98109.88;;;18.85;100.00
141;BME280;65;48.778;9.160;2023-09-12T01:51:54;98105.66;;;18.82;100.00
141;BME280;65;48.778;9.160;2023-09-12T01:54:42;98111.19;;;18.81;100.00
141;BME280;65;48.778;9.160;2023-09-12T01:57:28;98101.06;;;18.75;100.00
141;BME280;65;48.778;9.160;2023-09-12T02:00:14;98100.06;;;18.76;100.00
141;BME280;65;48.778;9.160;2023-09-12T02:03:01;98101.22;;;18.73;100.00
141;BME280;65;48.778;9.160;2023-09-12T02:05:47;98107.41;;;18.74;100.00
141;BME280;65;48.778;9.160;2023-09-12T02:08:33;98103.16;;;18.81;100.00
141;BME280;65;48.778;9.160;2023-09-12T02:11:18;98099.31;;;18.83;100.00
141;BME280;65;48.778;9.160;2023-09-12T02:14:04;98090.97;;;18.86;100.00
141;BME280;65;48.778;9.160;2023-09-12T02:16:50;98090.38;;;18.92;100.00
141;BME280;65;48.778;9.160;2023-09-12T02:19:35;98095.03;;;18.90;100.00
141;BME280;65;48.778;9.160;2023-09-12T02:22:21;98095.03;;;18.90;100.00
141;BME280;65;48.778;9.160;2023-09-12T02:25:07;98100.41;;;18.90;100.00
141;BME280;65;48.778;9.160;2023-09-12T02:27:53;98100.00;;;18.85;100.00
141;BME280;65;48.778;9.160;2023-09-12T02:30:39;98098.09;;;18.78;100.00
141;BME280;65;48.778;9.160;2023-09-12T02:33:26;98096.94;;;18.80;100.00
141;BME280;65;48.778;9.160;2023-09-12T02:36:11;98091.03;;;18.77;100.00
141;BME280;65;48.778;9.160;2023-09-12T02:38:57;98080.88;;;18.80;100.00
141;BME280;65;48.778;9.160;2023-09-12T02:41:43;98075.75;;;18.87;100.00
141;BME280;65;48.778;9.160;2023-09-12T02:44:28;98076.13;;;18.92;100.00
141;BME280;65;48.778;9.160;2023-09-12T02:47:14;98077.22;;;18.81;100.00
141;BME280;65;48.778;9.160;2023-09-12T02:50:00;98074.28;;;18.75;100.00
141;BME280;65;48.778;9.160;2023-09-12T02:52:45;98071.53;;;18.67;100.00
141;BME280;65;48.778;9.160;2023-09-12T02:55:31;98080.44;;;18.57;100.00
141;BME280;65;48.778;9.160;2023-09-12T02:58:17;98081.03;;;18.51;100.00
141;BME280;65;48.778;9.160;2023-09-12T03:01:03;98079.63;;;18.47;100.00
141;BME280;65;48.778;9.160;2023-09-12T03:03:51;98083.28;;;18.46;100.00
141;BME280;65;48.778;9.160;2023-09-12T03:06:37;98079.91;;;18.44;100.00
141;BME280;65;48.778;9.160;2023-09-12T03:09:23;98082.88;;;18.41;100.00
141;BME280;65;48.778;9.160;2023-09-12T03:12:09;98080.66;;;18.37;100.00
141;BME280;65;48.778;9.160;2023-09-12T03:14:56;98080.81;;;18.35;100.00
141;BME280;65;48.778;9.160;2023-09-12T03:17:41;98077.13;;;18.36;100.00
141;BME280;65;48.778;9.160;2023-09-12T03:20:27;98081.66;;;18.36;100.00
141;BME280;65;48.778;9.160;2023-09-12T03:23:13;98080.25;;;18.31;100.00
141;BME280;65;48.778;9.160;2023-09-12T03:26:03;98078.81;;;18.37;100.00
141;BME280;65;48.778;9.160;2023-09-12T03:28:49;98075.56;;;18.43;100.00
141;BME280;65;48.778;9.160;2023-09-12T03:31:38;98082.72;;;18.52;100.00
141;BME280;65;48.778;9.160;2023-09-12T03:34:23;98076.03;;;18.66;100.00
141;BME280;65;48.778;9.160;2023-09-12T03:37:09;98079.56;;;18.67;100.00
141;BME280;65;48.778;9.160;2023-09-12T03:39:55;98065.97;;;18.95;100.00
141;BME280;65;48.778;9.160;2023-09-12T03:42:40;98062.31;;;19.14;100.00
141;BME280;65;48.778;9.160;2023-09-12T03:45:26;98064.13;;;19.32;100.00
141;BME280;65;48.778;9.160;2023-09-12T03:48:12;98064.13;;;19.32;100.00
141;BME280;65;48.778;9.160;2023-09-12T03:50:57;98056.03;;;19.23;100.00
141;BME280;65;48.778;9.160;2023-09-12T03:53:43;98056.19;;;19.22;100.00
141;BME280;65;48.778;9.160;2023-09-12T03:56:29;98067.91;;;19.21;100.00
141;BME280;65;48.778;9.160;2023-09-12T03:59:14;98075.34;;;19.09;100.00
141;BME280;65;48.778;9.160;2023-09-12T04:02:02;98062.75;;;18.92;100.00
141;BME280;65;48.778;9.160;2023-09-12T04:04:48;98058.69;;;18.88;100.00
141;BME280;65;48.778;9.160;2023-09-12T04:07:34;98072.16;;;18.78;100.00
141;BME280;65;48.778;9.160;2023-09-12T04:10:20;98061.50;;;18.69;100.00
141;BME280;65;48.778;9.160;2023-09-12T04:13:06;98073.50;;;18.64;100.00
141;BME280;65;48.778;9.160;2023-09-12T04:15:51;98075.69;;;18.51;100.00
141;BME280;65;48.778;9.160;2023-09-12T04:18:38;98076.09;;;18.47;100.00
141;BME280;65;48.778;9.160;2023-09-12T04:21:23;98081.91;;;18.42;100.00
141;BME280;65;48.778;9.160;2023-09-12T04:24:09;98079.34;;;18.50;100.00
141;BME280;65;48.778;9.160;2023-09-12T04:26:55;98074.91;;;18.69;100.00
141;BME280;65;48.778;9.160;2023-09-12T04:29:41;98066.50;;;18.81;100.00
141;BME280;65;48.778;9.160;2023-09-12T04:32:26;98063.66;;;18.83;100.00
141;BME280;65;48.778;9.160;2023-09-12T04:35:12;98058.63;;;18.98;100.00
141;BME280;65;48.778;9.160;2023-09-12T04:37:58;98061.63;;;19.12;100.00
141;BME280;65;48.778;9.160;2023-09-12T04:40:53;98060.84;;;19.20;100.00
141;BME280;65;48.778;9.160;2023-09-12T04:47:21;98058.34;;;19.18;100.00
141;BME280;65;48.778;9.160;2023-09-12T04:50:07;98054.44;;;19.13;100.00
141;BME280;65;48.778;9.160;2023-09-12T04:52:53;98059.16;;;19.01;100.00
141;BME280;65;48.778;9.160;2023-09-12T04:55:39;98057.09;;;18.95;100.00
141;BME280;65;48.778;9.160;2023-09-12T04:58:25;98064.88;;;18.88;100.00
141;BME280;65;48.778;9.160;2023-09-12T05:01:10;98061.97;;;18.82;100.00
141;BME280;65;48.778;9.160;2023-09-12T05:03:57;98058.63;;;18.80;100.00
141;BME280;65;48.778;9.160;2023-09-12T05:06:42;98066.78;;;18.78;100.00
141;BME280;65;48.778;9.160;2023-09-12T05:09:28;98061.97;;;18.82;100.00
141;BME280;65;48.778;9.160;2023-09-12T05:12:14;98069.56;;;18.86;100.00
141;BME280;65;48.778;9.160;2023-09-12T05:15:00;98075.75;;;18.87;100.00
141;BME280;65;48.778;9.160;2023-09-12T05:17:45;98074.84;;;18.96;100.00
141;BME280;65;48.778;9.160;2023-09-12T05:20:32;98065.97;;;19.31;100.00
141;BME280;65;48.778;9.160;2023-09-12T05:23:17;98066.88;;;19.40;100.00
141;BME280;65;48.778;9.160;2023-09-12T05:26:03;98064.19;;;19.57;100.00
141;BME280;65;48.778;9.160;2023-09-12T05:28:49;98054.59;;;19.73;100.00
141;BME280;65;48.778;9.160;2023-09-12T05:31:35;98068.59;;;19.84;100.00
141;BME280;65;48.778;9.160;2023-09-12T05:34:21;98070.00;;;19.97;100.00
141;BME280;65;48.778;9.160;2023-09-12T05:37:06;98078.94;;;20.05;99.14
141;BME280;65;48.778;9.160;2023-09-12T05:39:52;98076.13;;;20.15;99.48
141;BME280;65;48.778;9.160;2023-09-12T05:42:38;98074.50;;;20.22;98.33
141;BME280;65;48.778;9.160;2023-09-12T05:45:23;98068.94;;;20.41;96.25
141;BME280;65;48.778;9.160;2023-09-12T05:48:09;98080.44;;;20.68;94.86
141;BME280;65;48.778;9.160;2023-09-12T05:50:55;98070.75;;;20.83;94.77
141;BME280;65;48.778;9.160;2023-09-12T05:53:40;98076.31;;;20.98;91.95
141;BME280;65;48.778;9.160;2023-09-12T05:56:26;98076.84;;;21.17;90.89
141;BME280;65;48.778;9.160;2023-09-12T05:59:13;98084.91;;;21.09;90.05
141;BME280;65;48.778;9.160;2023-09-12T06:01:59;98087.00;;;21.40;91.10
141;BME280;65;48.778;9.160;2023-09-12T06:04:45;98082.13;;;21.60;87.75
141;BME280;65;48.778;9.160;2023-09-12T06:07:30;98088.00;;;21.71;91.02
141;BME280;65;48.778;9.160;2023-09-12T06:10:17;98089.19;;;21.44;87.58
141;BME280;65;48.778;9.160;2023-09-12T06:13:03;98085.16;;;21.57;91.59
141;BME280;65;48.778;9.160;2023-09-12T06:15:49;98090.69;;;21.63;90.48
141;BME280;65;48.778;9.160;2023-09-12T06:18:34;98093.22;;;21.49;90.00
141;BME280;65;48.778;9.160;2023-09-12T06:21:20;98094.56;;;21.44;90.75
141;BME280;65;48.778;9.160;2023-09-12T06:24:14;98094.06;;;21.57;91.46
141;BME280;65;48.778;9.160;2023-09-12T06:27:00;98091.34;;;21.73;91.67
141;BME280;65;48.778;9.160;2023-09-12T06:29:46;98098.91;;;21.78;91.75
141;BME280;65;48.778;9.160;2023-09-12T06:32:35;98096.72;;;21.82;89.55
141;BME280;65;48.778;9.160;2023-09-12T06:35:22;98107.84;;;21.78;90.34
141;BME280;65;48.778;9.160;2023-09-12T06:38:07;98107.16;;;21.85;88.98
141;BME280;65;48.778;9.160;2023-09-12T06:40:53;98106.16;;;21.86;89.28
141;BME280;65;48.778;9.160;2023-09-12T06:43:39;98103.25;;;21.95;87.92
141;BME280;65;48.778;9.160;2023-09-12T06:46:26;98110.50;;;21.95;89.51
141;BME280;65;48.778;9.160;2023-09-12T06:49:12;98115.88;;;21.95;87.92
141;BME280;65;48.778;9.160;2023-09-12T06:51:58;98114.22;;;22.02;88.54
141;BME280;65;48.778;9.160;2023-09-12T06:54:44;98126.00;;;22.09;88.11
141;BME280;65;48.778;9.160;2023-09-12T07:01:05;98122.19;;;22.51;84.54
141;BME280;65;48.778;9.160;2023-09-12T07:03:51;98123.88;;;22.60;83.60
141;BME280;65;48.778;9.160;2023-09-12T07:06:39;98142.78;;;22.91;83.10
141;BME280;65;48.778;9.160;2023-09-12T07:09:25;98140.53;;;23.02;80.77
141;BME280;65;48.778;9.160;2023-09-12T07:12:10;98148.09;;;23.07;81.82
141;BME280;65;48.778;9.160;2023-09-12T07:15:01;98138.50;;;23.04;80.58
141;BME280;65;48.778;9.160;2023-09-12T07:17:47;98143.41;;;23.01;81.73
141;BME280;65;48.778;9.160;2023-09-12T07:20:36;98143.00;;;23.43;78.05
141;BME280;65;48.778;9.160;2023-09-12T07:23:21;98146.72;;;23.42;78.98
141;BME280;65;48.778;9.160;2023-09-12T07:26:12;98160.59;;;23.31;78.55
141;BME280;65;48.778;9.160;2023-09-12T07:28:59;98167.19;;;23.28;78.94
141;BME280;65;48.778;9.160;2023-09-12T07:31:48;98152.25;;;23.18;79.60
141;BME280;65;48.778;9.160;2023-09-12T07:34:37;98158.94;;;22.91;80.96
141;BME280;65;48.778;9.160;2023-09-12T07:37:23;98158.19;;;23.13;79.84
141;BME280;65;48.778;9.160;2023-09-12T07:40:09;98153.00;;;23.03;80.45
141;BME280;65;48.778;9.160;2023-09-12T07:42:55;98159.28;;;23.27;78.79
141;BME280;65;48.778;9.160;2023-09-12T07:49:23;98152.97;;;23.65;76.74
141;BME280;65;48.778;9.160;2023-09-12T07:52:14;98146.81;;;23.57;75.80
141;BME280;65;48.778;9.160;2023-09-12T07:55:01;98145.19;;;23.71;76.72
141;BME280;65;48.778;9.160;2023-09-12T07:57:47;98147.59;;;24.03;76.16
141;BME280;65;48.778;9.160;2023-09-12T08:00:36;98140.91;;;24.14;73.49
141;BME280;65;48.778;9.160;2023-09-12T08:03:21;98148.72;;;24.61;74.73
141;BME280;65;48.778;9.160;2023-09-12T08:06:07;98142.09;;;24.93;72.39
141;BME280;65;48.778;9.160;2023-09-12T08:08:54;98139.78;;;24.75;74.38
141;BME280;65;48.778;9.160;2023-09-12T08:11:39;98146.09;;;25.12;76.04
141;BME280;65;48.778;9.160;2023-09-12T08:14:25;98146.94;;;25.48;71.20
141;BME280;65;48.778;9.160;2023-09-12T08:17:12;98145.84;;;25.64;67.38
141;BME280;65;48.778;9.160;2023-09-12T08:19:58;98156.97;;;25.69;65.50
141;BME280;65;48.778;9.160;2023-09-12T08:22:44;98148.44;;;25.94;65.49
141;BME280;65;48.778;9.160;2023-09-12T08:25:29;98142.75;;;25.89;66.22
141;BME280;65;48.778;9.160;2023-09-12T08:28:15;98139.66;;;26.13;68.67
141;BME280;65;48.778;9.160;2023-09-12T08:31:01;98144.09;;;26.21;68.76
141;BME280;65;48.778;9.160;2023-09-12T08:33:47;98147.34;;;26.37;68.54
141;BME280;65;48.778;9.160;2023-09-12T08:36:32;98139.50;;;26.49;65.64
141;BME280;65;48.778;9.160;2023-09-12T08:39:23;98145.09;;;26.75;62.92
141;BME280;65;48.778;9.160;2023-09-12T08:42:15;98142.00;;;27.20;59.40
141;BME280;65;48.778;9.160;2023-09-12T08:45:01;98136.88;;;28.77;53.79
141;BME280;65;48.778;9.160;2023-09-12T08:47:52;98139.84;;;30.03;50.55
141;BME280;65;48.778;9.160;2023-09-12T08:50:38;98135.28;;;29.65;50.65
141;BME280;65;48.778;9.160;2023-09-12T08:53:24;98142.72;;;31.12;46.83
141;BME280;65;48.778;9.160;2023-09-12T08:56:10;98139.03;;;32.50;43.19
141;BME280;65;48.778;9.160;2023-09-12T08:59:12;98140.66;;;33.10;40.84
141;BME280;65;48.778;9.160;2023-09-12T09:01:58;98137.63;;;33.91;38.70
141;BME280;65;48.778;9.160;2023-09-12T09:04:46;98136.59;;;32.07;42.27
141;BME280;65;48.778;9.160;2023-09-12T09:07:35;98131.34;;;30.17;47.94
141;BME280;65;48.778;9.160;2023-09-12T09:10:22;98139.88;;;29.20;50.50
141;BME280;65;48.778;9.160;2023-09-12T09:13:09;98133.22;;;28.38;54.48
141;BME280;65;48.778;9.160;2023-09-12T09:19:02;98134.44;;;27.83;55.20
141;BME280;65;48.778;9.160;2023-09-12T09:21:49;98136.31;;;27.82;55.46
141;BME280;65;48.778;9.160;2023-09-12T09:24:35;98134.22;;;27.10;58.54
141;BME280;65;48.778;9.160;2023-09-12T09:27:32;98122.38;;;27.18;59.11
141;BME280;65;48.778;9.160;2023-09-12T09:30:39;98117.00;;;27.44;57.95
141;BME280;65;48.778;9.160;2023-09-12T09:33:25;98109.50;;;27.46;58.63
141;BME280;65;48.778;9.160;2023-09-12T09:36:13;98103.22;;;27.46;59.55
141;BME280;65;48.778;9.160;2023-09-12T09:38:59;98097.81;;;27.59;58.33
141;BME280;65;48.778;9.160;2023-09-12T09:41:51;98108.81;;;27.18;59.67
141;BME280;65;48.778;9.160;2023-09-12T09:44:37;98110.72;;;27.37;58.88
141;BME280;65;48.778;9.160;2023-09-12T09:47:23;98101.19;;;27.61;58.46
141;BME280;65;48.778;9.160;2023-09-12T09:50:13;98103.91;;;27.74;57.58
141;BME280;65;48.778;9.160;2023-09-12T09:53:00;98100.16;;;27.95;57.37
141;BME280;65;48.778;9.160;2023-09-12T09:55:47;98098.69;;;28.19;57.35
141;BME280;65;48.778;9.160;2023-09-12T09:58:32;98096.38;;;28.42;56.09
141;BME280;65;48.778;9.160;2023-09-12T10:01:28;98095.06;;;28.64;57.45
141;BME280;65;48.778;9.160;2023-09-12T10:04:15;98089.97;;;28.88;54.02
141;BME280;65;48.778;9.160;2023-09-12T10:07:01;98083.47;;;28.82;52.80
141;BME280;65;48.778;9.160;2023-09-12T10:09:46;98077.16;;;29.02;50.77
141;BME280;65;48.778;9.160;2023-09-12T10:12:39;98074.53;;;29.20;52.11
141;BME280;65;48.778;9.160;2023-09-12T10:15:28;98075.56;;;29.64;50.06
141;BME280;65;48.778;9.160;2023-09-12T10:18:19;98070.63;;;30.04;48.50
141;BME280;65;48.778;9.160;2023-09-12T10:21:11;98079.16;;;30.14;48.83
141;BME280;65;48.778;9.160;2023-09-12T10:24:03;98079.16;;;30.32;48.15
141;BME280;65;48.778;9.160;2023-09-12T10:26:50;98084.69;;;30.87;47.91
141;BME280;65;48.778;9.160;2023-09-12T10:29:37;98077.63;;;32.11;45.04
141;BME280;65;48.778;9.160;2023-09-12T10:32:23;98080.16;;;34.52;39.61
141;BME280;65;48.778;9.160;2023-09-12T10:35:10;98073.78;;;36.20;37.07
141;BME280;65;48.778;9.160;2023-09-12T10:38:02;98080.16;;;36.67;34.32
141;BME280;65;48.778;9.160;2023-09-12T10:40:53;98071.78;;;38.23;31.78
141;BME280;65;48.778;9.160;2023-09-12T10:43:44;98076.19;;;38.19;31.99
141;BME280;65;48.778;9.160;2023-09-12T10:46:37;98077.16;;;38.84;30.61
141;BME280;65;48.778;9.160;2023-09-12T10:49:25;98079.06;;;39.97;28.81
141;BME280;65;48.778;9.160;2023-09-12T10:52:23;98076.69;;;39.31;28.37
141;BME280;65;48.778;9.160;2023-09-12T10:55:15;98075.78;;;39.51;27.93
141;BME280;65;48.778;9.160;2023-09-12T10:58:03;98072.81;;;39.76;26.56
141;BME280;65;48.778;9.160;2023-09-12T11:01:24;98073.00;;;38.86;28.50
141;BME280;65;48.778;9.160;2023-09-12T11:10:24;98053.31;;;40.55;26.23
141;BME280;65;48.778;9.160;2023-09-12T11:13:19;98057.88;;;40.40;25.17
141;BME280;65;48.778;9.160;2023-09-12T11:16:15;98051.44;;;40.50;24.94
141;BME280;65;48.778;9.160;2023-09-12T11:19:19;98051.75;;;41.15;24.70
141;BME280;65;48.778;9.160;2023-09-12T11:28:19;98053.06;;;41.79;23.57
141;BME280;65;48.778;9.160;2023-09-12T11:31:05;98051.41;;;41.59;23.79
141;BME280;65;48.778;9.160;2023-09-12T11:33:52;98038.38;;;40.74;24.72
141;BME280;65;48.778;9.160;2023-09-12T11:36:41;98026.31;;;40.89;24.63
141;BME280;65;48.778;9.160;2023-09-12T11:39:31;98022.47;;;42.44;22.69
141;BME280;65;48.778;9.160;2023-09-12T11:42:18;98024.06;;;42.91;21.38
141;BME280;65;48.778;9.160;2023-09-12T11:45:08;98012.56;;;41.22;24.30
141;BME280;65;48.778;9.160;2023-09-12T11:47:54;98013.81;;;41.86;23.02
141;BME280;65;48.778;9.160;2023-09-12T11:50:41;98020.59;;;41.93;22.68
141;BME280;65;48.778;9.160;2023-09-12T11:53:28;98025.88;;;41.57;23.28
141;BME280;65;48.778;9.160;2023-09-12T11:56:16;98017.78;;;41.61;23.54
141;BME280;65;48.778;9.160;2023-09-12T11:59:02;98009.56;;;41.18;23.66
141;BME280;65;48.778;9.160;2023-09-12T12:01:48;98010.44;;;42.35;22.59
141;BME280;65;48.778;9.160;2023-09-12T12:04:34;98014.00;;;41.89;23.02
141;BME280;65;48.778;9.160;2023-09-12T12:07:20;98018.25;;;41.49;23.06
141;BME280;65;48.778;9.160;2023-09-12T12:10:06;98008.22;;;41.72;22.77
141;BME280;65;48.778;9.160;2023-09-12T12:12:53;98013.31;;;41.08;24.40
141;BME280;65;48.778;9.160;2023-09-12T12:15:39;98016.72;;;41.00;25.75
141;BME280;65;48.778;9.160;2023-09-12T12:18:25;98005.66;;;41.76;23.56
141;BME280;65;48.778;9.160;2023-09-12T12:21:11;98004.28;;;41.54;23.61
141;BME280;65;48.778;9.160;2023-09-12T12:24:00;97996.81;;;39.64;25.75
141;BME280;65;48.778;9.160;2023-09-12T12:26:46;97992.38;;;39.23;26.35
141;BME280;65;48.778;9.160;2023-09-12T12:29:32;97995.34;;;38.88;26.74
141;BME280;65;48.778;9.160;2023-09-12T12:32:18;97989.88;;;38.78;26.40
141;BME280;65;48.778;9.160;2023-09-12T12:35:06;97978.34;;;40.41;24.43
141;BME280;65;48.778;9.160;2023-09-12T12:37:54;97982.47;;;40.43;24.39
141;BME280;65;48.778;9.160;2023-09-12T12:40:41;97982.81;;;41.27;23.11
141;BME280;65;48.778;9.160;2023-09-12T12:43:27;97974.59;;;41.55;22.30
141;BME280;65;48.778;9.160;2023-09-12T12:46:13;97975.41;;;40.80;23.81
141;BME280;65;48.778;9.160;2023-09-12T12:48:59;97978.13;;;40.37;23.90
141;BME280;65;48.778;9.160;2023-09-12T12:51:46;97976.13;;;41.28;23.46
141;BME280;65;48.778;9.160;2023-09-12T12:54:32;97978.94;;;39.46;24.73
141;BME280;65;48.778;9.160;2023-09-12T12:57:21;97972.06;;;38.94;24.83
141;BME280;65;48.778;9.160;2023-09-12T13:00:12;97971.53;;;38.92;25.20
141;BME280;65;48.778;9.160;2023-09-12T13:02:58;97968.56;;;39.67;23.91
141;BME280;65;48.778;9.160;2023-09-12T13:05:43;97966.03;;;39.70;24.73
141;BME280;65;48.778;9.160;2023-09-12T13:08:29;97963.47;;;39.06;25.90
141;BME280;65;48.778;9.160;2023-09-12T13:11:16;97953.91;;;37.83;25.85
141;BME280;65;48.778;9.160;2023-09-12T13:14:04;97949.91;;;36.77;27.33
141;BME280;65;48.778;9.160;2023-09-12T13:16:57;97952.28;;;36.43;28.63
141;BME280;65;48.778;9.160;2023-09-12T13:19:48;97942.84;;;37.07;27.92
141;BME280;65;48.778;9.160;2023-09-12T13:22:34;97936.53;;;37.47;26.82
141;BME280;65;48.778;9.160;2023-09-12T13:25:20;97932.41;;;37.24;26.75
141;BME280;65;48.778;9.160;2023-09-12T13:28:08;97947.47;;;35.81;29.33
141;BME280;65;48.778;9.160;2023-09-12T13:30:55;97948.91;;;34.98;32.59
141;BME280;65;48.778;9.160;2023-09-12T13:33:40;97946.16;;;36.36;28.01
141;BME280;65;48.778;9.160;2023-09-12T13:36:27;97949.78;;;37.29;27.47
141;BME280;65;48.778;9.160;2023-09-12T13:39:13;97949.50;;;37.82;26.54
141;BME280;65;48.778;9.160;2023-09-12T13:41:59;97946.75;;;37.66;26.82
141;BME280;65;48.778;9.160;2023-09-12T13:44:48;97950.63;;;37.76;28.22
141;BME280;65;48.778;9.160;2023-09-12T13:47:34;97946.72;;;37.92;26.99
141;BME280;65;48.778;9.160;2023-09-12T13:50:20;97934.31;;;37.69;27.11
141;BME280;65;48.778;9.160;2023-09-12T13:53:05;97928.53;;;37.55;28.10
141;BME280;65;48.778;9.160;2023-09-12T13:55:52;97935.13;;;37.90;27.27
141;BME280;65;48.778;9.160;2023-09-12T13:58:37;97931.56;;;37.44;27.77
141;BME280;65;48.778;9.160;2023-09-12T14:01:23;97931.53;;;37.03;28.94
141;BME280;65;48.778;9.160;2023-09-12T14:04:09;97926.84;;;37.14;28.25
141;BME280;65;48.778;9.160;2023-09-12T14:06:55;97930.31;;;36.73;28.83
141;BME280;65;48.778;9.160;2023-09-12T14:09:40;97928.25;;;36.33;30.58
141;BME280;65;48.778;9.160;2023-09-12T14:12:26;97932.53;;;36.14;30.91
141;BME280;65;48.778;9.160;2023-09-12T14:15:12;97934.72;;;36.64;29.64
141;BME280;65;48.778;9.160;2023-09-12T14:17:59;97931.19;;;36.84;29.33
141;BME280;65;48.778;9.160;2023-09-12T14:20:45;97930.81;;;36.45;29.76
141;BME280;65;48.778;9.160;2023-09-12T14:23:32;97934.41;;;36.51;29.16
141;BME280;65;48.778;9.160;2023-09-12T14:26:18;97936.38;;;35.07;32.99
141;BME280;65;48.778;9.160;2023-09-12T14:29:03;97943.91;;;34.07;35.61
141;BME280;65;48.778;9.160;2023-09-12T14:31:49;97938.13;;;33.20;36.16
141;BME280;65;48.778;9.160;2023-09-12T14:34:36;97936.94;;;32.30;39.20
141;BME280;65;48.778;9.160;2023-09-12T14:37:21;97934.00;;;31.97;38.16
141;BME280;65;48.778;9.160;2023-09-12T14:40:12;97944.34;;;31.71;39.99
141;BME280;65;48.778;9.160;2023-09-12T14:42:59;97944.78;;;31.45;39.98
141;BME280;65;48.778;9.160;2023-09-12T14:45:45;97947.88;;;31.25;41.82
141;BME280;65;48.778;9.160;2023-09-12T14:48:31;97947.41;;;31.28;42.56
141;BME280;65;48.778;9.160;2023-09-12T14:51:19;97945.88;;;31.14;43.97
141;BME280;65;48.778;9.160;2023-09-12T14:54:05;97948.84;;;31.12;43.82
141;BME280;65;48.778;9.160;2023-09-12T14:56:52;97953.13;;;31.08;42.28
141;BME280;65;48.778;9.160;2023-09-12T14:59:39;97946.56;;;31.28;41.80
141;BME280;65;48.778;9.160;2023-09-12T15:02:25;97943.53;;;31.18;41.29
141;BME280;65;48.778;9.160;2023-09-12T15:05:16;97956.44;;;31.10;42.06
141;BME280;65;48.778;9.160;2023-09-12T15:08:03;97951.22;;;31.09;44.45
141;BME280;65;48.778;9.160;2023-09-12T15:10:49;97941.34;;;31.08;44.73
141;BME280;65;48.778;9.160;2023-09-12T15:13:34;97942.94;;;31.15;42.97
141;BME280;65;48.778;9.160;2023-09-12T15:16:20;97937.53;;;31.39;42.15
141;BME280;65;48.778;9.160;2023-09-12T15:19:06;97941.72;;;31.65;40.36
141;BME280;65;48.778;9.160;2023-09-12T15:21:53;97939.59;;;31.78;39.37
141;BME280;65;48.778;9.160;2023-09-12T15:24:40;97945.63;;;32.27;38.66
141;BME280;65;48.778;9.160;2023-09-12T15:27:26;97930.72;;;32.35;37.74
141;BME280;65;48.778;9.160;2023-09-12T15:30:12;97937.34;;;31.99;39.10
141;BME280;65;48.778;9.160;2023-09-12T15:32:58;97938.97;;;31.53;40.10
141;BME280;65;48.778;9.160;2023-09-12T15:35:44;97924.44;;;31.18;40.48
141;BME280;65;48.778;9.160;2023-09-12T15:38:29;97919.94;;;30.81;41.41
141;BME280;65;48.778;9.160;2023-09-12T15:41:16;97930.53;;;30.41;43.05
141;BME280;65;48.778;9.160;2023-09-12T15:44:02;97943.72;;;30.26;44.42
141;BME280;65;48.778;9.160;2023-09-12T15:46:51;97937.38;;;30.14;44.90
141;BME280;65;48.778;9.160;2023-09-12T15:49:39;97933.09;;;30.00;43.64
141;BME280;65;48.778;9.160;2023-09-12T15:52:24;97931.72;;;29.72;45.67
141;BME280;65;48.778;9.160;2023-09-12T15:55:10;97926.41;;;29.59;44.50
141;BME280;65;48.778;9.160;2023-09-12T15:57:56;97926.16;;;29.36;47.59
141;BME280;65;48.778;9.160;2023-09-12T16:00:42;97920.97;;;29.27;47.16
141;BME280;65;48.778;9.160;2023-09-12T16:03:28;97917.94;;;29.17;46.18
141;BME280;65;48.778;9.160;2023-09-12T16:06:15;97925.75;;;29.32;44.24
141;BME280;65;48.778;9.160;2023-09-12T16:09:00;97923.69;;;29.27;47.26
141;BME280;65;48.778;9.160;2023-09-12T16:11:46;97918.03;;;29.29;47.02
141;BME280;65;48.778;9.160;2023-09-12T16:14:32;97909.94;;;29.47;44.98